sensor_id;sensor_type;location;lat;lon;timestamp;temperature;humidity
26641;DHT22;14269;47.358;0.724;2023-04-08T00:00:01;10.0;63.0
26641;DHT22;14269;47.358;0.724;2023-04-08T00:02:32;10.0;64.0
26641;DHT22;14269;47.358;0.724;2023-04-08T00:05:05;10.0;63.0
26641;DHT22;14269;47.358;0.724;2023-04-08T00:07:36;10.0;64.0
26641;DHT22;14269;47.358;0.724;2023-04-08T00:10:08;10.0;64.0
26641;DHT22;14269;47.358;0.724;2023-04-08T00:12:49;9.0;64.0
26641;DHT22;14269;47.358;0.724;2023-04-08T00:15:20;9.0;64.0
26641;DHT22;14269;47.358;0.724;2023-04-08T00:17:53;9.0;64.0
26641;DHT22;14269;47.358;0.724;2023-04-08T00:20:24;9.0;64.0
26641;DHT22;14269;47.358;0.724;2023-04-08T00:22:55;9.0;65.0
26641;DHT22;14269;47.358;0.724;2023-04-08T00:25:27;9.0;65.0
26641;DHT22;14269;47.358;0.724;2023-04-08T00:27:59;9.0;65.0
26641;DHT22;14269;47.358;0.724;2023-04-08T00:30:31;9.0;65.0
26641;DHT22;14269;47.358;0.724;2023-04-08T00:33:03;9.0;65.0
26641;DHT22;14269;47.358;0.724;2023-04-08T00:35:34;9.0;65.0
26641;DHT22;14269;47.358;0.724;2023-04-08T00:38:07;9.0;66.0
26641;DHT22;14269;47.358;0.724;2023-04-08T00:40:47;9.0;65.0
26641;DHT22;14269;47.358;0.724;2023-04-08T00:43:20;9.0;65.0
26641;DHT22;14269;47.358;0.724;2023-04-08T00:46:01;9.0;65.0
26641;DHT22;14269;47.358;0.724;2023-04-08T00:48:32;9.0;66.0
26641;DHT22;14269;47.358;0.724;2023-04-08T00:51:04;9.0;66.0
26641;DHT22;14269;47.358;0.724;2023-04-08T00:53:35;9.0;66.0
26641;DHT22;14269;47.358;0.724;2023-04-08T00:56:07;9.0;66.0
26641;DHT22;14269;47.358;0.724;2023-04-08T00:58:39;9.0;66.0
26641;DHT22;14269;47.358;0.724;2023-04-08T01:01:13;9.0;66.0
26641;DHT22;14269;47.358;0.724;2023-04-08T01:03:57;9.0;66.0
26641;DHT22;14269;47.358;0.724;2023-04-08T01:06:43;9.0;65.0
26641;DHT22;14269;47.358;0.724;2023-04-08T01:09:30;9.0;66.0
26641;DHT22;14269;47.358;0.724;2023-04-08T01:12:09;9.0;66.0
26641;DHT22;14269;47.358;0.724;2023-04-08T01:14:51;9.0;66.0
26641;DHT22;14269;47.358;0.724;2023-04-08T01:17:32;9.0;66.0
26641;DHT22;14269;47.358;0.724;2023-04-08T01:20:14;9.0;66.0
26641;DHT22;14269;47.358;0.724;2023-04-08T01:23:04;9.0;66.0
26641;DHT22;14269;47.358;0.724;2023-04-08T01:25:48;9.0;66.0
26641;DHT22;14269;47.358;0.724;2023-04-08T01:28:29;9.0;67.0
26641;DHT22;14269;47.358;0.724;2023-04-08T01:31:10;9.0;67.0
26641;DHT22;14269;47.358;0.724;2023-04-08T01:33:42;9.0;67.0
26641;DHT22;14269;47.358;0.724;2023-04-08T01:36:25;9.0;67.0
26641;DHT22;14269;47.358;0.724;2023-04-08T01:39:05;9.0;67.0
26641;DHT22;14269;47.358;0.724;2023-04-08T01:41:47;9.0;67.0
26641;DHT22;14269;47.358;0.724;2023-04-08T01:44:19;9.0;66.0
26641;DHT22;14269;47.358;0.724;2023-04-08T01:47:01;9.0;67.0
26641;DHT22;14269;47.358;0.724;2023-04-08T01:49:42;9.0;67.0
26641;DHT22;14269;47.358;0.724;2023-04-08T01:52:15;9.0;67.0
26641;DHT22;14269;47.358;0.724;2023-04-08T01:54:55;9.0;67.0
26641;DHT22;14269;47.358;0.724;2023-04-08T01:57:31;9.0;67.0
26641;DHT22;14269;47.358;0.724;2023-04-08T02:00:11;9.0;67.0
26641;DHT22;14269;47.358;0.724;2023-04-08T02:02:51;9.0;67.0
26641;DHT22;14269;47.358;0.724;2023-04-08T02:05:22;9.0;67.0
26641;DHT22;14269;47.358;0.724;2023-04-08T02:07:54;8.0;67.0
26641;DHT22;14269;47.358;0.724;2023-04-08T02:10:25;8.0;67.0
26641;DHT22;14269;47.358;0.724;2023-04-08T02:12:57;8.0;67.0
26641;DHT22;14269;47.358;0.724;2023-04-08T02:15:33;8.0;68.0
26641;DHT22;14269;47.358;0.724;2023-04-08T02:18:14;8.0;68.0
26641;DHT22;14269;47.358;0.724;2023-04-08T02:20:57;8.0;68.0
26641;DHT22;14269;47.358;0.724;2023-04-08T02:23:37;8.0;68.0
26641;DHT22;14269;47.358;0.724;2023-04-08T02:26:18;8.0;68.0
26641;DHT22;14269;47.358;0.724;2023-04-08T02:28:58;8.0;68.0
26641;DHT22;14269;47.358;0.724;2023-04-08T02:31:30;8.0;68.0
26641;DHT22;14269;47.358;0.724;2023-04-08T02:34:01;8.0;67.0
26641;DHT22;14269;47.358;0.724;2023-04-08T02:36:33;8.0;68.0
26641;DHT22;14269;47.358;0.724;2023-04-08T02:39:04;8.0;68.0
26641;DHT22;14269;47.358;0.724;2023-04-08T02:41:36;8.0;68.0
26641;DHT22;14269;47.358;0.724;2023-04-08T02:44:08;8.0;68.0
26641;DHT22;14269;47.358;0.724;2023-04-08T02:46:49;8.0;68.0
26641;DHT22;14269;47.358;0.724;2023-04-08T02:49:21;8.0;68.0
26641;DHT22;14269;47.358;0.724;2023-04-08T02:51:52;8.0;68.0
26641;DHT22;14269;47.358;0.724;2023-04-08T02:54:24;8.0;68.0
26641;DHT22;14269;47.358;0.724;2023-04-08T02:56:56;8.0;68.0
26641;DHT22;14269;47.358;0.724;2023-04-08T02:59:27;8.0;68.0
26641;DHT22;14269;47.358;0.724;2023-04-08T03:01:59;8.0;69.0
26641;DHT22;14269;47.358;0.724;2023-04-08T03:04:31;8.0;69.0
26641;DHT22;14269;47.358;0.724;2023-04-08T03:07:02;8.0;69.0
26641;DHT22;14269;47.358;0.724;2023-04-08T03:09:34;8.0;69.0
26641;DHT22;14269;47.358;0.724;2023-04-08T03:12:06;8.0;69.0
26641;DHT22;14269;47.358;0.724;2023-04-08T03:14:37;8.0;69.0
26641;DHT22;14269;47.358;0.724;2023-04-08T03:17:09;8.0;69.0
26641;DHT22;14269;47.358;0.724;2023-04-08T03:19:41;8.0;69.0
26641;DHT22;14269;47.358;0.724;2023-04-08T03:22:12;8.0;69.0
26641;DHT22;14269;47.358;0.724;2023-04-08T03:24:44;8.0;69.0
26641;DHT22;14269;47.358;0.724;2023-04-08T03:27:16;8.0;69.0
26641;DHT22;14269;47.358;0.724;2023-04-08T03:29:47;8.0;69.0
26641;DHT22;14269;47.358;0.724;2023-04-08T03:32:19;8.0;69.0
26641;DHT22;14269;47.358;0.724;2023-04-08T03:34:50;8.0;69.0
26641;DHT22;14269;47.358;0.724;2023-04-08T03:37:22;8.0;69.0
26641;DHT22;14269;47.358;0.724;2023-04-08T03:39:54;8.0;69.0
26641;DHT22;14269;47.358;0.724;2023-04-08T03:42:26;8.0;69.0
26641;DHT22;14269;47.358;0.724;2023-04-08T03:44:58;8.0;69.0
26641;DHT22;14269;47.358;0.724;2023-04-08T03:47:29;8.0;69.0
26641;DHT22;14269;47.358;0.724;2023-04-08T03:50:00;8.0;70.0
26641;DHT22;14269;47.358;0.724;2023-04-08T03:52:32;8.0;70.0
26641;DHT22;14269;47.358;0.724;2023-04-08T03:55:04;8.0;70.0
26641;DHT22;14269;47.358;0.724;2023-04-08T03:57:35;8.0;70.0
26641;DHT22;14269;47.358;0.724;2023-04-08T04:00:08;8.0;70.0
26641;DHT22;14269;47.358;0.724;2023-04-08T04:02:49;8.0;70.0
26641;DHT22;14269;47.358;0.724;2023-04-08T04:05:20;8.0;71.0
26641;DHT22;14269;47.358;0.724;2023-04-08T04:07:52;8.0;71.0
26641;DHT22;14269;47.358;0.724;2023-04-08T04:10:24;8.0;70.0
26641;DHT22;14269;47.358;0.724;2023-04-08T04:12:55;8.0;71.0
26641;DHT22;14269;47.358;0.724;2023-04-08T04:15:27;8.0;71.0
26641;DHT22;14269;47.358;0.724;2023-04-08T04:17:59;8.0;71.0
26641;DHT22;14269;47.358;0.724;2023-04-08T04:20:30;8.0;71.0
26641;DHT22;14269;47.358;0.724;2023-04-08T04:23:02;8.0;71.0
26641;DHT22;14269;47.358;0.724;2023-04-08T04:25:34;8.0;71.0
26641;DHT22;14269;47.358;0.724;2023-04-08T04:28:05;8.0;71.0
26641;DHT22;14269;47.358;0.724;2023-04-08T04:30:37;8.0;71.0
26641;DHT22;14269;47.358;0.724;2023-04-08T04:33:08;8.0;71.0
26641;DHT22;14269;47.358;0.724;2023-04-08T04:35:40;8.0;71.0
26641;DHT22;14269;47.358;0.724;2023-04-08T04:38:12;8.0;71.0
26641;DHT22;14269;47.358;0.724;2023-04-08T04:40:43;8.0;71.0
26641;DHT22;14269;47.358;0.724;2023-04-08T04:43:15;8.0;71.0
26641;DHT22;14269;47.358;0.724;2023-04-08T04:45:47;8.0;71.0
26641;DHT22;14269;47.358;0.724;2023-04-08T04:48:18;8.0;71.0
26641;DHT22;14269;47.358;0.724;2023-04-08T04:50:54;8.0;71.0
26641;DHT22;14269;47.358;0.724;2023-04-08T04:53:32;8.0;71.0
26641;DHT22;14269;47.358;0.724;2023-04-08T04:56:04;8.0;71.0
26641;DHT22;14269;47.358;0.724;2023-04-08T04:58:35;8.0;71.0
26641;DHT22;14269;47.358;0.724;2023-04-08T05:01:07;8.0;71.0
26641;DHT22;14269;47.358;0.724;2023-04-08T05:03:38;8.0;71.0
26641;DHT22;14269;47.358;0.724;2023-04-08T05:06:10;8.0;71.0
26641;DHT22;14269;47.358;0.724;2023-04-08T05:08:42;8.0;71.0
26641;DHT22;14269;47.358;0.724;2023-04-08T05:11:13;7.0;71.0
26641;DHT22;14269;47.358;0.724;2023-04-08T05:13:55;7.0;71.0
26641;DHT22;14269;47.358;0.724;2023-04-08T05:16:27;7.0;71.0
26641;DHT22;14269;47.358;0.724;2023-04-08T05:18:58;7.0;71.0
26641;DHT22;14269;47.358;0.724;2023-04-08T05:21:31;7.0;71.0
26641;DHT22;14269;47.358;0.724;2023-04-08T05:24:12;7.0;71.0
26641;DHT22;14269;47.358;0.724;2023-04-08T05:26:43;7.0;71.0
26641;DHT22;14269;47.358;0.724;2023-04-08T05:29:15;7.0;72.0
26641;DHT22;14269;47.358;0.724;2023-04-08T05:31:47;7.0;72.0
26641;DHT22;14269;47.358;0.724;2023-04-08T05:34:21;7.0;72.0
26641;DHT22;14269;47.358;0.724;2023-04-08T05:37:00;7.0;72.0
26641;DHT22;14269;47.358;0.724;2023-04-08T05:39:32;7.0;71.0
26641;DHT22;14269;47.358;0.724;2023-04-08T05:42:03;7.0;72.0
26641;DHT22;14269;47.358;0.724;2023-04-08T05:44:35;7.0;72.0
26641;DHT22;14269;47.358;0.724;2023-04-08T05:47:07;7.0;72.0
26641;DHT22;14269;47.358;0.724;2023-04-08T05:49:38;7.0;72.0
26641;DHT22;14269;47.358;0.724;2023-04-08T05:52:10;7.0;72.0
26641;DHT22;14269;47.358;0.724;2023-04-08T05:54:42;7.0;72.0
26641;DHT22;14269;47.358;0.724;2023-04-08T05:57:13;7.0;72.0
26641;DHT22;14269;47.358;0.724;2023-04-08T05:59:55;7.0;72.0
26641;DHT22;14269;47.358;0.724;2023-04-08T06:02:27;8.0;72.0
26641;DHT22;14269;47.358;0.724;2023-04-08T06:04:58;8.0;72.0
26641;DHT22;14269;47.358;0.724;2023-04-08T06:07:31;8.0;72.0
26641;DHT22;14269;47.358;0.724;2023-04-08T06:10:12;8.0;71.0
26641;DHT22;14269;47.358;0.724;2023-04-08T06:12:43;8.0;71.0
26641;DHT22;14269;47.358;0.724;2023-04-08T06:15:15;8.0;71.0
26641;DHT22;14269;47.358;0.724;2023-04-08T06:17:47;8.0;71.0
26641;DHT22;14269;47.358;0.724;2023-04-08T06:20:18;8.0;71.0
26641;DHT22;14269;47.358;0.724;2023-04-08T06:22:50;8.0;70.0
26641;DHT22;14269;47.358;0.724;2023-04-08T06:25:22;9.0;70.0
26641;DHT22;14269;47.358;0.724;2023-04-08T06:27:53;9.0;70.0
26641;DHT22;14269;47.358;0.724;2023-04-08T06:30:25;9.0;70.0
26641;DHT22;14269;47.358;0.724;2023-04-08T06:32:56;9.0;69.0
26641;DHT22;14269;47.358;0.724;2023-04-08T06:35:28;9.0;69.0
26641;DHT22;14269;47.358;0.724;2023-04-08T06:38:00;9.0;68.0
26641;DHT22;14269;47.358;0.724;2023-04-08T06:40:31;9.0;68.0
26641;DHT22;14269;47.358;0.724;2023-04-08T06:43:03;9.0;68.0
26641;DHT22;14269;47.358;0.724;2023-04-08T06:45:35;9.0;68.0
26641;DHT22;14269;47.358;0.724;2023-04-08T06:48:08;10.0;67.0
26641;DHT22;14269;47.358;0.724;2023-04-08T06:50:48;10.0;67.0
26641;DHT22;14269;47.358;0.724;2023-04-08T06:53:21;10.0;66.0
26641;DHT22;14269;47.358;0.724;2023-04-08T06:56:02;10.0;65.0
26641;DHT22;14269;47.358;0.724;2023-04-08T06:58:33;10.0;64.0
26641;DHT22;14269;47.358;0.724;2023-04-08T07:01:05;10.0;64.0
26641;DHT22;14269;47.358;0.724;2023-04-08T07:03:36;10.0;65.0
26641;DHT22;14269;47.358;0.724;2023-04-08T07:06:08;11.0;65.0
26641;DHT22;14269;47.358;0.724;2023-04-08T07:08:40;11.0;64.0
26641;DHT22;14269;47.358;0.724;2023-04-08T07:11:11;11.0;65.0
26641;DHT22;14269;47.358;0.724;2023-04-08T07:13:43;11.0;64.0
26641;DHT22;14269;47.358;0.724;2023-04-08T07:16:15;11.0;63.0
26641;DHT22;14269;47.358;0.724;2023-04-08T07:18:46;11.0;62.0
26641;DHT22;14269;47.358;0.724;2023-04-08T07:21:18;12.0;62.0
26641;DHT22;14269;47.358;0.724;2023-04-08T07:23:50;12.0;61.0
26641;DHT22;14269;47.358;0.724;2023-04-08T07:26:22;12.0;61.0
26641;DHT22;14269;47.358;0.724;2023-04-08T07:28:53;12.0;61.0
26641;DHT22;14269;47.358;0.724;2023-04-08T07:31:25;12.0;61.0
26641;DHT22;14269;47.358;0.724;2023-04-08T07:33:56;12.0;61.0
26641;DHT22;14269;47.358;0.724;2023-04-08T07:36:28;13.0;60.0
26641;DHT22;14269;47.358;0.724;2023-04-08T07:39:00;13.0;59.0
26641;DHT22;14269;47.358;0.724;2023-04-08T07:41:31;13.0;60.0
26641;DHT22;14269;47.358;0.724;2023-04-08T07:44:03;13.0;60.0
26641;DHT22;14269;47.358;0.724;2023-04-08T07:46:36;13.0;58.0
26641;DHT22;14269;47.358;0.724;2023-04-08T07:49:16;13.0;61.0
26641;DHT22;14269;47.358;0.724;2023-04-08T07:51:48;13.0;61.0
26641;DHT22;14269;47.358;0.724;2023-04-08T07:54:19;13.0;60.0
26641;DHT22;14269;47.358;0.724;2023-04-08T07:56:51;13.0;60.0
26641;DHT22;14269;47.358;0.724;2023-04-08T07:59:23;14.0;59.0
26641;DHT22;14269;47.358;0.724;2023-04-08T08:01:55;14.0;60.0
26641;DHT22;14269;47.358;0.724;2023-04-08T08:04:26;14.0;58.0
26641;DHT22;14269;47.358;0.724;2023-04-08T08:06:58;14.0;59.0
26641;DHT22;14269;47.358;0.724;2023-04-08T08:09:29;14.0;56.0
26641;DHT22;14269;47.358;0.724;2023-04-08T08:12:01;14.0;56.0
26641;DHT22;14269;47.358;0.724;2023-04-08T08:14:33;15.0;57.0
26641;DHT22;14269;47.358;0.724;2023-04-08T08:17:04;15.0;56.0
26641;DHT22;14269;47.358;0.724;2023-04-08T08:19:36;15.0;55.0
26641;DHT22;14269;47.358;0.724;2023-04-08T08:22:08;15.0;55.0
26641;DHT22;14269;47.358;0.724;2023-04-08T08:24:39;15.0;54.0
26641;DHT22;14269;47.358;0.724;2023-04-08T08:27:11;15.0;53.0
26641;DHT22;14269;47.358;0.724;2023-04-08T08:29:43;15.0;54.0
26641;DHT22;14269;47.358;0.724;2023-04-08T08:32:14;15.0;54.0
26641;DHT22;14269;47.358;0.724;2023-04-08T08:34:46;15.0;54.0
26641;DHT22;14269;47.358;0.724;2023-04-08T08:37:17;15.0;55.0
26641;DHT22;14269;47.358;0.724;2023-04-08T08:39:49;15.0;56.0
26641;DHT22;14269;47.358;0.724;2023-04-08T08:42:22;15.0;54.0
26641;DHT22;14269;47.358;0.724;2023-04-08T08:45:03;15.0;54.0
26641;DHT22;14269;47.358;0.724;2023-04-08T08:47:34;16.0;53.0
26641;DHT22;14269;47.358;0.724;2023-04-08T08:50:06;16.0;54.0
26641;DHT22;14269;47.358;0.724;2023-04-08T08:52:37;16.0;53.0
26641;DHT22;14269;47.358;0.724;2023-04-08T08:55:09;16.0;53.0
26641;DHT22;14269;47.358;0.724;2023-04-08T08:57:41;16.0;55.0
26641;DHT22;14269;47.358;0.724;2023-04-08T09:00:15;16.0;52.0
26641;DHT22;14269;47.358;0.724;2023-04-08T09:02:54;16.0;54.0
26641;DHT22;14269;47.358;0.724;2023-04-08T09:05:26;16.0;52.0
26641;DHT22;14269;47.358;0.724;2023-04-08T09:07:57;16.0;54.0
26641;DHT22;14269;47.358;0.724;2023-04-08T09:10:29;16.0;52.0
26641;DHT22;14269;47.358;0.724;2023-04-08T09:13:01;17.0;51.0
26641;DHT22;14269;47.358;0.724;2023-04-08T09:15:32;17.0;50.0
26641;DHT22;14269;47.358;0.724;2023-04-08T09:18:20;17.0;50.0
26641;DHT22;14269;47.358;0.724;2023-04-08T09:20:58;17.0;50.0
26641;DHT22;14269;47.358;0.724;2023-04-08T09:23:40;17.0;51.0
26641;DHT22;14269;47.358;0.724;2023-04-08T09:26:21;17.0;51.0
26641;DHT22;14269;47.358;0.724;2023-04-08T09:29:03;17.0;51.0
26641;DHT22;14269;47.358;0.724;2023-04-08T09:31:43;17.0;52.0
26641;DHT22;14269;47.358;0.724;2023-04-08T09:34:16;17.0;50.0
26641;DHT22;14269;47.358;0.724;2023-04-08T09:36:56;17.0;49.0
26641;DHT22;14269;47.358;0.724;2023-04-08T09:39:29;17.0;48.0
26641;DHT22;14269;47.358;0.724;2023-04-08T09:42:10;17.0;48.0
26641;DHT22;14269;47.358;0.724;2023-04-08T09:44:53;17.0;50.0
26641;DHT22;14269;47.358;0.724;2023-04-08T09:47:41;18.0;48.0
26641;DHT22;14269;47.358;0.724;2023-04-08T09:50:15;18.0;49.0
26641;DHT22;14269;47.358;0.724;2023-04-08T09:53:01;18.0;49.0
26641;DHT22;14269;47.358;0.724;2023-04-08T09:55:39;18.0;49.0
26641;DHT22;14269;47.358;0.724;2023-04-08T09:58:28;18.0;46.0
26641;DHT22;14269;47.358;0.724;2023-04-08T10:01:03;18.0;45.0
26641;DHT22;14269;47.358;0.724;2023-04-08T10:03:48;18.0;45.0
26641;DHT22;14269;47.358;0.724;2023-04-08T10:06:27;18.0;45.0
26641;DHT22;14269;47.358;0.724;2023-04-08T10:09:09;18.0;44.0
26641;DHT22;14269;47.358;0.724;2023-04-08T10:11:49;18.0;45.0
26641;DHT22;14269;47.358;0.724;2023-04-08T10:14:21;18.0;44.0
26641;DHT22;14269;47.358;0.724;2023-04-08T10:17:23;18.0;43.0
26641;DHT22;14269;47.358;0.724;2023-04-08T10:19:57;18.0;45.0
26641;DHT22;14269;47.358;0.724;2023-04-08T10:22:52;18.0;44.0
26641;DHT22;14269;47.358;0.724;2023-04-08T10:25:30;18.0;44.0
26641;DHT22;14269;47.358;0.724;2023-04-08T10:28:26;18.0;44.0
26641;DHT22;14269;47.358;0.724;2023-04-08T10:31:02;18.0;41.0
26641;DHT22;14269;47.358;0.724;2023-04-08T10:33:33;18.0;43.0
26641;DHT22;14269;47.358;0.724;2023-04-08T10:36:09;19.0;42.0
26641;DHT22;14269;47.358;0.724;2023-04-08T10:38:47;18.0;43.0
26641;DHT22;14269;47.358;0.724;2023-04-08T10:41:23;18.0;43.0
26641;DHT22;14269;47.358;0.724;2023-04-08T10:44:02;19.0;40.0
26641;DHT22;14269;47.358;0.724;2023-04-08T10:46:42;19.0;39.0
26641;DHT22;14269;47.358;0.724;2023-04-08T10:49:14;19.0;39.0
26641;DHT22;14269;47.358;0.724;2023-04-08T10:51:46;19.0;42.0
26641;DHT22;14269;47.358;0.724;2023-04-08T10:54:27;19.0;41.0
26641;DHT22;14269;47.358;0.724;2023-04-08T10:56:58;19.0;41.0
26641;DHT22;14269;47.358;0.724;2023-04-08T10:59:40;19.0;40.0
26641;DHT22;14269;47.358;0.724;2023-04-08T11:02:12;19.0;40.0
26641;DHT22;14269;47.358;0.724;2023-04-08T11:04:44;18.0;39.0
26641;DHT22;14269;47.358;0.724;2023-04-08T11:07:26;19.0;39.0
26641;DHT22;14269;47.358;0.724;2023-04-08T11:10:02;19.0;38.0
26641;DHT22;14269;47.358;0.724;2023-04-08T11:12:39;19.0;38.0
26641;DHT22;14269;47.358;0.724;2023-04-08T11:15:12;19.0;38.0
26641;DHT22;14269;47.358;0.724;2023-04-08T11:17:53;19.0;38.0
26641;DHT22;14269;47.358;0.724;2023-04-08T11:20:36;20.0;39.0
26641;DHT22;14269;47.358;0.724;2023-04-08T11:23:16;20.0;37.0
26641;DHT22;14269;47.358;0.724;2023-04-08T11:25:47;20.0;35.0
26641;DHT22;14269;47.358;0.724;2023-04-08T11:28:19;20.0;35.0
26641;DHT22;14269;47.358;0.724;2023-04-08T11:30:52;20.0;36.0
26641;DHT22;14269;47.358;0.724;2023-04-08T11:33:33;20.0;34.0
26641;DHT22;14269;47.358;0.724;2023-04-08T11:36:17;21.0;33.0
26641;DHT22;14269;47.358;0.724;2023-04-08T11:38:56;21.0;34.0
26641;DHT22;14269;47.358;0.724;2023-04-08T11:41:35;20.0;34.0
26641;DHT22;14269;47.358;0.724;2023-04-08T11:44:09;21.0;33.0
26641;DHT22;14269;47.358;0.724;2023-04-08T11:46:51;21.0;35.0
26641;DHT22;14269;47.358;0.724;2023-04-08T11:49:43;21.0;33.0
26641;DHT22;14269;47.358;0.724;2023-04-08T11:52:14;21.0;32.0
26641;DHT22;14269;47.358;0.724;2023-04-08T11:54:47;21.0;33.0
26641;DHT22;14269;47.358;0.724;2023-04-08T11:57:28;21.0;33.0
26641;DHT22;14269;47.358;0.724;2023-04-08T11:59:59;21.0;34.0
26641;DHT22;14269;47.358;0.724;2023-04-08T12:02:31;21.0;33.0
26641;DHT22;14269;47.358;0.724;2023-04-08T12:05:04;21.0;37.0
26641;DHT22;14269;47.358;0.724;2023-04-08T12:07:34;21.0;34.0
26641;DHT22;14269;47.358;0.724;2023-04-08T12:10:09;21.0;33.0
26641;DHT22;14269;47.358;0.724;2023-04-08T12:12:48;21.0;37.0
26641;DHT22;14269;47.358;0.724;2023-04-08T12:15:19;22.0;34.0
26641;DHT22;14269;47.358;0.724;2023-04-08T12:17:51;21.0;34.0
26641;DHT22;14269;47.358;0.724;2023-04-08T12:20:23;21.0;35.0
26641;DHT22;14269;47.358;0.724;2023-04-08T12:22:55;22.0;35.0
26641;DHT22;14269;47.358;0.724;2023-04-08T12:25:26;22.0;35.0
26641;DHT22;14269;47.358;0.724;2023-04-08T12:28:10;22.0;34.0
26641;DHT22;14269;47.358;0.724;2023-04-08T12:30:50;22.0;36.0
26641;DHT22;14269;47.358;0.724;2023-04-08T12:33:21;22.0;32.0
26641;DHT22;14269;47.358;0.724;2023-04-08T12:35:53;22.0;36.0
26641;DHT22;14269;47.358;0.724;2023-04-08T12:38:26;22.0;34.0
26641;DHT22;14269;47.358;0.724;2023-04-08T12:41:06;20.0;35.0
26641;DHT22;14269;47.358;0.724;2023-04-08T12:43:38;20.0;37.0
26641;DHT22;14269;47.358;0.724;2023-04-08T12:46:10;20.0;36.0
26641;DHT22;14269;47.358;0.724;2023-04-08T12:48:44;20.0;37.0
26641;DHT22;14269;47.358;0.724;2023-04-08T12:51:25;21.0;34.0
26641;DHT22;14269;47.358;0.724;2023-04-08T12:54:05;21.0;35.0
26641;DHT22;14269;47.358;0.724;2023-04-08T12:56:38;21.0;36.0
26641;DHT22;14269;47.358;0.724;2023-04-08T12:59:18;20.0;39.0
26641;DHT22;14269;47.358;0.724;2023-04-08T13:01:50;21.0;36.0
26641;DHT22;14269;47.358;0.724;2023-04-08T13:04:21;21.0;38.0
26641;DHT22;14269;47.358;0.724;2023-04-08T13:06:54;21.0;37.0
26641;DHT22;14269;47.358;0.724;2023-04-08T13:09:35;21.0;34.0
26641;DHT22;14269;47.358;0.724;2023-04-08T13:12:06;21.0;34.0
26641;DHT22;14269;47.358;0.724;2023-04-08T13:14:38;21.0;37.0
26641;DHT22;14269;47.358;0.724;2023-04-08T13:17:10;22.0;34.0
26641;DHT22;14269;47.358;0.724;2023-04-08T13:19:41;21.0;36.0
26641;DHT22;14269;47.358;0.724;2023-04-08T13:22:13;21.0;36.0
26641;DHT22;14269;47.358;0.724;2023-04-08T13:24:45;21.0;37.0
26641;DHT22;14269;47.358;0.724;2023-04-08T13:27:16;21.0;37.0
26641;DHT22;14269;47.358;0.724;2023-04-08T13:49:20;21.0;36.0
26641;DHT22;14269;47.358;0.724;2023-04-08T13:51:51;21.0;35.0
26641;DHT22;14269;47.358;0.724;2023-04-08T13:54:23;21.0;34.0
26641;DHT22;14269;47.358;0.724;2023-04-08T13:56:54;21.0;35.0
26641;DHT22;14269;47.358;0.724;2023-04-08T13:59:26;21.0;36.0
26641;DHT22;14269;47.358;0.724;2023-04-08T14:20:18;21.0;34.0
26641;DHT22;14269;47.358;0.724;2023-04-08T14:22:50;21.0;37.0
26641;DHT22;14269;47.358;0.724;2023-04-08T14:25:21;21.0;38.0
26641;DHT22;14269;47.358;0.724;2023-04-08T14:27:53;21.0;36.0
26641;DHT22;14269;47.358;0.724;2023-04-08T14:30:25;20.0;35.0
26641;DHT22;14269;47.358;0.724;2023-04-08T14:32:58;19.0;37.0
26641;DHT22;14269;47.358;0.724;2023-04-08T14:35:38;19.0;38.0
26641;DHT22;14269;47.358;0.724;2023-04-08T14:38:10;20.0;36.0
26641;DHT22;14269;47.358;0.724;2023-04-08T14:40:41;21.0;35.0
26641;DHT22;14269;47.358;0.724;2023-04-08T14:43:13;21.0;37.0
26641;DHT22;14269;47.358;0.724;2023-04-08T14:45:45;21.0;35.0
26641;DHT22;14269;47.358;0.724;2023-04-08T14:48:16;21.0;38.0
26641;DHT22;14269;47.358;0.724;2023-04-08T14:50:48;20.0;37.0
26641;DHT22;14269;47.358;0.724;2023-04-08T14:53:20;20.0;38.0
26641;DHT22;14269;47.358;0.724;2023-04-08T14:55:51;20.0;39.0
26641;DHT22;14269;47.358;0.724;2023-04-08T14:58:23;21.0;37.0
26641;DHT22;14269;47.358;0.724;2023-04-08T15:00:55;21.0;38.0
26641;DHT22;14269;47.358;0.724;2023-04-08T15:03:26;21.0;38.0
26641;DHT22;14269;47.358;0.724;2023-04-08T15:05:58;21.0;38.0
26641;DHT22;14269;47.358;0.724;2023-04-08T15:08:41;20.0;35.0
26641;DHT22;14269;47.358;0.724;2023-04-08T15:11:22;20.0;36.0
26641;DHT22;14269;47.358;0.724;2023-04-08T15:14:03;20.0;38.0
26641;DHT22;14269;47.358;0.724;2023-04-08T15:16:35;21.0;38.0
26641;DHT22;14269;47.358;0.724;2023-04-08T15:19:06;21.0;36.0
26641;DHT22;14269;47.358;0.724;2023-04-08T15:21:38;21.0;37.0
26641;DHT22;14269;47.358;0.724;2023-04-08T15:24:10;21.0;36.0
26641;DHT22;14269;47.358;0.724;2023-04-08T15:26:41;21.0;36.0
26641;DHT22;14269;47.358;0.724;2023-04-08T15:29:13;21.0;35.0
26641;DHT22;14269;47.358;0.724;2023-04-08T15:31:45;20.0;36.0
26641;DHT22;14269;47.358;0.724;2023-04-08T15:34:16;20.0;38.0
26641;DHT22;14269;47.358;0.724;2023-04-08T15:36:48;20.0;36.0
26641;DHT22;14269;47.358;0.724;2023-04-08T15:39:20;20.0;37.0
26641;DHT22;14269;47.358;0.724;2023-04-08T15:41:51;20.0;37.0
26641;DHT22;14269;47.358;0.724;2023-04-08T15:44:23;20.0;38.0
26641;DHT22;14269;47.358;0.724;2023-04-08T15:46:55;20.0;38.0
26641;DHT22;14269;47.358;0.724;2023-04-08T15:49:36;19.0;39.0
26641;DHT22;14269;47.358;0.724;2023-04-08T15:52:08;19.0;40.0
26641;DHT22;14269;47.358;0.724;2023-04-08T15:54:40;19.0;41.0
26641;DHT22;14269;47.358;0.724;2023-04-08T15:57:11;19.0;40.0
26641;DHT22;14269;47.358;0.724;2023-04-08T15:59:43;19.0;38.0
26641;DHT22;14269;47.358;0.724;2023-04-08T16:02:15;19.0;38.0
26641;DHT22;14269;47.358;0.724;2023-04-08T16:04:46;19.0;38.0
26641;DHT22;14269;47.358;0.724;2023-04-08T16:07:18;19.0;40.0
26641;DHT22;14269;47.358;0.724;2023-04-08T16:09:49;19.0;39.0
26641;DHT22;14269;47.358;0.724;2023-04-08T16:12:22;19.0;41.0
26641;DHT22;14269;47.358;0.724;2023-04-08T16:15:03;19.0;39.0
26641;DHT22;14269;47.358;0.724;2023-04-08T16:17:35;18.0;39.0
26641;DHT22;14269;47.358;0.724;2023-04-08T16:20:07;18.0;40.0
26641;DHT22;14269;47.358;0.724;2023-04-08T16:22:38;18.0;40.0
26641;DHT22;14269;47.358;0.724;2023-04-08T16:25:10;18.0;40.0
26641;DHT22;14269;47.358;0.724;2023-04-08T16:27:41;18.0;41.0
26641;DHT22;14269;47.358;0.724;2023-04-08T16:30:13;18.0;42.0
26641;DHT22;14269;47.358;0.724;2023-04-08T16:32:44;18.0;42.0
26641;DHT22;14269;47.358;0.724;2023-04-08T16:35:17;18.0;42.0
26641;DHT22;14269;47.358;0.724;2023-04-08T16:37:58;18.0;44.0
26641;DHT22;14269;47.358;0.724;2023-04-08T16:40:32;18.0;43.0
26641;DHT22;14269;47.358;0.724;2023-04-08T16:43:11;18.0;44.0
26641;DHT22;14269;47.358;0.724;2023-04-08T16:45:43;17.0;44.0
26641;DHT22;14269;47.358;0.724;2023-04-08T16:48:15;17.0;44.0
26641;DHT22;14269;47.358;0.724;2023-04-08T17:08:56;17.0;45.0
26641;DHT22;14269;47.358;0.724;2023-04-08T17:11:28;17.0;45.0
26641;DHT22;14269;47.358;0.724;2023-04-08T17:14:00;17.0;45.0
26641;DHT22;14269;47.358;0.724;2023-04-08T17:16:31;17.0;46.0
26641;DHT22;14269;47.358;0.724;2023-04-08T17:19:03;17.0;46.0
26641;DHT22;14269;47.358;0.724;2023-04-08T17:21:35;17.0;45.0
26641;DHT22;14269;47.358;0.724;2023-04-08T17:24:07;17.0;45.0
26641;DHT22;14269;47.358;0.724;2023-04-08T17:26:39;17.0;44.0
26641;DHT22;14269;47.358;0.724;2023-04-08T17:29:20;17.0;44.0
26641;DHT22;14269;47.358;0.724;2023-04-08T17:31:51;17.0;44.0
26641;DHT22;14269;47.358;0.724;2023-04-08T17:34:23;17.0;44.0
26641;DHT22;14269;47.358;0.724;2023-04-08T17:37:05;17.0;45.0
26641;DHT22;14269;47.358;0.724;2023-04-08T17:39:39;17.0;45.0
26641;DHT22;14269;47.358;0.724;2023-04-08T17:42:21;16.0;46.0
26641;DHT22;14269;47.358;0.724;2023-04-08T17:45:01;16.0;47.0
26641;DHT22;14269;47.358;0.724;2023-04-08T17:47:42;16.0;47.0